createdAt,value
2019-03-08T00:00:25.288Z,19.42
2019-03-08T00:01:25.258Z,19.44
2019-03-08T00:02:25.248Z,19.32
2019-03-08T00:03:25.237Z,19.38
2019-03-08T00:04:25.237Z,19.35
2019-03-08T00:05:25.237Z,19.27
2019-03-08T00:06:25.210Z,19.35
2019-03-08T00:07:25.214Z,19.37
2019-03-08T00:08:25.188Z,19.38
2019-03-08T00:09:25.181Z,19.53
2019-03-08T00:10:25.190Z,19.59
2019-03-08T00:11:25.163Z,19.66
2019-03-08T00:12:25.152Z,19.81
2019-03-08T00:13:25.140Z,19.94
2019-03-08T00:14:25.130Z,20.14
2019-03-08T00:15:25.128Z,20.24
2019-03-08T00:16:25.103Z,20.30
2019-03-08T00:17:25.091Z,20.44
2019-03-08T00:18:25.087Z,20.68
2019-03-08T00:19:25.068Z,20.85
2019-03-08T00:20:25.088Z,21.05
2019-03-08T00:21:25.061Z,21.26
2019-03-08T00:22:25.044Z,21.54
2019-03-08T00:23:25.033Z,21.66
2019-03-08T00:24:25.039Z,21.81
2019-03-08T00:25:25.016Z,21.99
2019-03-08T00:26:25.026Z,22.04
2019-03-08T00:27:24.990Z,22.18
2019-03-08T00:28:24.978Z,22.22
2019-03-08T00:29:24.985Z,22.33
2019-03-08T00:30:24.962Z,22.41
2019-03-08T00:31:24.966Z,22.47
2019-03-08T00:32:24.938Z,22.62
2019-03-08T00:33:24.922Z,22.68
2019-03-08T00:34:24.915Z,22.89
2019-03-08T00:35:24.908Z,22.95
2019-03-08T00:36:24.911Z,23.04
2019-03-08T00:37:24.880Z,23.08
2019-03-08T00:38:24.873Z,23.18
2019-03-08T00:39:24.863Z,23.16
2019-03-08T00:40:24.847Z,23.21
2019-03-08T00:41:24.897Z,23.21
2019-03-08T00:42:24.830Z,23.16
2019-03-08T00:43:24.824Z,23.20
2019-03-08T00:44:24.817Z,23.25
2019-03-08T00:45:24.811Z,23.17
2019-03-08T00:46:24.800Z,23.20
2019-03-08T00:47:24.772Z,23.26
2019-03-08T00:48:24.766Z,23.34
2019-03-08T00:49:24.762Z,23.36
2019-03-08T00:50:24.745Z,23.40
2019-03-08T00:51:24.750Z,23.51
2019-03-08T00:52:24.733Z,23.48
2019-03-08T00:53:24.709Z,23.51
2019-03-08T00:54:24.702Z,23.55
2019-03-08T00:55:24.689Z,23.63
2019-03-08T00:56:24.701Z,23.66
2019-03-08T00:57:24.669Z,23.63
2019-03-08T00:58:24.662Z,23.56
2019-03-08T00:59:24.649Z,23.77
2019-03-08T01:00:24.640Z,23.85
2019-03-08T01:01:24.647Z,23.91
2019-03-08T01:02:24.618Z,23.82
2019-03-08T01:03:24.624Z,23.82
2019-03-08T01:04:24.596Z,23.85
2019-03-08T01:05:24.586Z,23.82
2019-03-08T01:06:24.599Z,23.76
2019-03-08T01:07:24.571Z,23.71
2019-03-08T01:08:24.557Z,23.63
2019-03-08T01:09:24.547Z,23.64
2019-03-08T01:10:24.534Z,23.59
2019-03-08T01:11:24.558Z,23.62
2019-03-08T01:12:24.512Z,23.52
2019-03-08T01:13:24.503Z,23.63
2019-03-08T01:14:24.490Z,23.55
2019-03-08T01:15:24.477Z,23.62
2019-03-08T01:16:25.990Z,23.66
2019-03-08T01:17:24.467Z,23.66
2019-03-08T01:18:24.445Z,23.62
2019-03-08T01:19:24.437Z,23.74
2019-03-08T01:20:24.427Z,23.67
2019-03-08T01:21:24.421Z,23.88
2019-03-08T01:22:24.419Z,23.94
2019-03-08T01:23:24.399Z,23.94
2019-03-08T01:24:24.386Z,23.91
2019-03-08T01:25:24.376Z,23.86
2019-03-08T01:26:24.387Z,23.95
2019-03-08T01:27:24.368Z,23.99
2019-03-08T01:28:24.341Z,24.09
2019-03-08T01:29:24.333Z,24.16
2019-03-08T01:30:24.321Z,24.14
2019-03-08T01:31:24.313Z,24.19
2019-03-08T01:32:24.311Z,24.24
2019-03-08T01:33:24.288Z,24.18
2019-03-08T01:34:24.288Z,24.19
2019-03-08T01:35:24.269Z,24.25
2019-03-08T01:36:24.259Z,24.24
2019-03-08T01:37:24.261Z,24.21
2019-03-08T01:38:24.233Z,24.16
2019-03-08T01:39:24.249Z,24.16
2019-03-08T01:40:24.210Z,24.13
2019-03-08T01:41:24.210Z,24.09
2019-03-08T01:42:24.215Z,24.01
2019-03-08T01:43:24.187Z,24.03
2019-03-08T01:44:24.177Z,23.89
2019-03-08T01:45:24.165Z,23.91
2019-03-08T01:46:24.155Z,23.89
2019-03-08T01:47:24.155Z,23.85
2019-03-08T01:48:24.133Z,23.76
2019-03-08T01:49:24.123Z,23.79
2019-03-08T01:50:24.113Z,23.77
2019-03-08T01:51:24.099Z,23.74
2019-03-08T01:52:24.108Z,23.79
2019-03-08T01:53:24.081Z,23.71
2019-03-08T01:54:24.069Z,23.71
2019-03-08T01:55:24.058Z,23.67
2019-03-08T01:56:24.049Z,23.64
2019-03-08T01:57:24.066Z,23.64
2019-03-08T01:58:24.031Z,23.55
2019-03-08T01:59:24.013Z,23.54
2019-03-08T02:00:24.006Z,23.45
2019-03-08T02:01:23.995Z,23.44
2019-03-08T02:02:23.983Z,23.33
2019-03-08T02:03:23.993Z,23.29
2019-03-08T02:04:23.964Z,23.13
2019-03-08T02:05:23.952Z,23.04
2019-03-08T02:06:23.942Z,23.06
2019-03-08T02:07:23.929Z,23.04
2019-03-08T02:08:23.944Z,23.01
2019-03-08T02:09:23.912Z,22.92
2019-03-08T02:10:23.903Z,22.93
2019-03-08T02:11:23.886Z,22.91
2019-03-08T02:12:23.881Z,22.99
2019-03-08T02:13:23.884Z,23.02
2019-03-08T02:14:23.857Z,23.02
2019-03-08T02:15:23.851Z,23.16
2019-03-08T02:16:23.838Z,23.17
2019-03-08T02:17:23.825Z,23.18
2019-03-08T02:18:23.835Z,23.25
2019-03-08T02:19:23.811Z,23.20
2019-03-08T02:20:23.796Z,23.29
2019-03-08T02:21:23.792Z,23.34
2019-03-08T02:22:23.773Z,23.36
2019-03-08T02:23:23.783Z,23.40
2019-03-08T02:24:23.759Z,23.39
2019-03-08T02:25:23.746Z,23.48
2019-03-08T02:26:23.734Z,23.59
2019-03-08T02:27:23.722Z,23.56
2019-03-08T02:28:23.727Z,23.67
2019-03-08T02:29:23.698Z,23.70
2019-03-08T02:30:23.690Z,23.71
2019-03-08T02:31:23.680Z,23.81
2019-03-08T02:32:23.669Z,23.86
2019-03-08T02:33:23.683Z,23.95
2019-03-08T02:34:23.645Z,23.85
2019-03-08T02:35:23.638Z,23.99
2019-03-08T02:36:23.625Z,23.95
2019-03-08T02:37:23.619Z,23.94
2019-03-08T02:38:23.624Z,24.00
2019-03-08T02:39:23.603Z,24.00
2019-03-08T02:40:23.583Z,24.04
2019-03-08T02:41:23.579Z,24.04
2019-03-08T02:42:23.568Z,23.94
2019-03-08T02:43:23.570Z,23.95
2019-03-08T02:44:23.541Z,23.92
2019-03-08T02:45:23.534Z,23.94
2019-03-08T02:46:23.529Z,23.88
2019-03-08T02:47:23.514Z,23.79
2019-03-08T02:48:23.519Z,23.81
2019-03-08T02:49:23.490Z,23.86
2019-03-08T02:50:23.485Z,23.82
2019-03-08T02:51:23.471Z,23.86
2019-03-08T02:52:23.462Z,23.89
2019-03-08T02:53:23.471Z,23.89
2019-03-08T02:54:23.437Z,23.95
2019-03-08T02:55:23.435Z,23.91
2019-03-08T02:56:23.427Z,23.85
2019-03-08T02:57:23.416Z,23.89
2019-03-08T02:58:23.408Z,23.86
2019-03-08T02:59:23.388Z,23.82
2019-03-08T03:00:23.407Z,23.85
2019-03-08T03:01:23.374Z,23.95
2019-03-08T03:02:23.356Z,23.94
2019-03-08T03:03:23.373Z,24.06
2019-03-08T03:04:23.333Z,24.06
2019-03-08T03:05:23.322Z,24.01
2019-03-08T03:06:23.314Z,24.07
2019-03-08T03:07:23.301Z,24.11
2019-03-08T03:08:23.292Z,24.06
2019-03-08T03:09:23.290Z,24.07
2019-03-08T03:10:23.271Z,24.09
2019-03-08T03:11:23.261Z,24.03
2019-03-08T03:12:23.257Z,24.07
2019-03-08T03:13:23.235Z,24.00
2019-03-08T03:14:23.244Z,23.94
2019-03-08T03:15:23.221Z,23.94
2019-03-08T03:16:23.211Z,23.92
2019-03-08T03:17:23.195Z,23.92
2019-03-08T03:18:23.186Z,23.91
2019-03-08T03:19:23.187Z,23.88
2019-03-08T03:20:23.171Z,23.85
2019-03-08T03:21:23.154Z,23.84
2019-03-08T03:22:23.143Z,23.88
2019-03-08T03:23:23.141Z,23.86
2019-03-08T03:24:23.140Z,23.85
2019-03-08T03:25:23.113Z,23.84
2019-03-08T03:26:23.104Z,23.85
2019-03-08T03:27:23.095Z,23.86
2019-03-08T03:28:23.082Z,23.92
2019-03-08T03:29:23.095Z,23.88
2019-03-08T03:30:23.069Z,23.96
2019-03-08T03:31:23.078Z,23.95
2019-03-08T03:32:23.038Z,23.96
2019-03-08T03:33:23.040Z,23.89
2019-03-08T03:34:23.033Z,23.96
2019-03-08T03:35:23.005Z,23.88
2019-03-08T03:36:23.005Z,23.94
2019-03-08T03:37:22.987Z,23.92
2019-03-08T03:38:22.978Z,23.96
2019-03-08T03:39:22.980Z,24.04
2019-03-08T03:40:22.956Z,24.06
2019-03-08T03:41:22.950Z,24.00
2019-03-08T03:42:22.931Z,24.01
2019-03-08T03:43:22.927Z,24.06
2019-03-08T03:44:22.926Z,24.06
2019-03-08T03:45:22.902Z,24.06
2019-03-08T03:46:22.899Z,24.01
2019-03-08T03:47:22.880Z,23.94
2019-03-08T03:48:22.867Z,23.95
2019-03-08T03:49:22.897Z,23.89
2019-03-08T03:50:22.846Z,23.82
2019-03-08T03:51:22.841Z,23.88
2019-03-08T03:52:22.835Z,23.85
2019-03-08T03:53:22.820Z,23.84
2019-03-08T03:54:22.807Z,23.74
2019-03-08T03:55:22.822Z,23.79
2019-03-08T03:56:22.790Z,23.79
2019-03-08T03:57:22.780Z,23.73
2019-03-08T03:58:22.767Z,23.88
2019-03-08T03:59:22.761Z,23.86
2019-03-08T04:00:22.758Z,23.82
2019-03-08T04:01:22.733Z,23.88
2019-03-08T04:02:22.725Z,23.94
2019-03-08T04:03:22.711Z,23.91
2019-03-08T04:04:22.706Z,23.91
2019-03-08T04:05:22.707Z,23.89
2019-03-08T04:06:22.689Z,23.89
2019-03-08T04:07:22.672Z,23.91
2019-03-08T04:08:22.658Z,23.88
2019-03-08T04:09:22.650Z,23.94
2019-03-08T04:10:22.656Z,23.92
2019-03-08T04:11:22.627Z,23.92
2019-03-08T04:12:22.619Z,23.86
2019-03-08T04:13:22.608Z,23.95
2019-03-08T04:14:22.609Z,23.94
2019-03-08T04:15:22.598Z,23.86
2019-03-08T04:16:22.576Z,23.92
2019-03-08T04:17:22.566Z,23.88
2019-03-08T04:18:22.560Z,23.85
2019-03-08T04:19:22.552Z,23.91
2019-03-08T04:20:22.543Z,23.86
2019-03-08T04:21:22.529Z,23.82
2019-03-08T04:22:22.512Z,23.73
2019-03-08T04:23:22.504Z,23.66
2019-03-08T04:24:22.495Z,23.55
2019-03-08T04:25:22.495Z,23.47
2019-03-08T04:26:22.469Z,23.39
2019-03-08T04:27:22.463Z,23.39
2019-03-08T04:28:22.449Z,23.25
2019-03-08T04:29:22.444Z,23.23
2019-03-08T04:30:22.445Z,23.26
2019-03-08T04:31:22.419Z,23.14
2019-03-08T04:32:22.411Z,23.11
2019-03-08T04:33:22.407Z,23.04
2019-03-08T04:34:22.386Z,23.08
2019-03-08T04:35:22.396Z,23.06
2019-03-08T04:36:22.369Z,23.06
2019-03-08T04:37:22.360Z,23.04
2019-03-08T04:38:22.346Z,22.99
2019-03-08T04:39:22.336Z,22.98
2019-03-08T04:40:22.355Z,23.01
2019-03-08T04:41:22.316Z,23.07
2019-03-08T04:42:22.300Z,23.10
2019-03-08T04:43:22.298Z,23.20
2019-03-08T04:44:22.286Z,23.23
2019-03-08T04:45:22.268Z,23.21
2019-03-08T04:46:22.272Z,23.28
2019-03-08T04:47:22.247Z,23.37
2019-03-08T04:48:22.242Z,23.42
2019-03-08T04:49:22.230Z,23.45
2019-03-08T04:50:22.222Z,23.54
2019-03-08T04:51:22.225Z,23.55
2019-03-08T04:52:22.196Z,23.56
2019-03-08T04:53:22.188Z,23.63
2019-03-08T04:54:22.181Z,23.62
2019-03-08T04:55:22.170Z,23.70
2019-03-08T04:56:22.175Z,23.73
2019-03-08T04:57:22.150Z,23.79
2019-03-08T04:58:22.146Z,23.81
2019-03-08T04:59:22.127Z,23.84
2019-03-08T05:00:22.114Z,23.84
2019-03-08T05:01:22.119Z,23.86
2019-03-08T05:02:22.094Z,23.85
2019-03-08T05:03:22.082Z,23.91
2019-03-08T05:04:22.072Z,23.91
2019-03-08T05:05:22.064Z,23.89
2019-03-08T05:06:22.071Z,23.86
2019-03-08T05:07:22.040Z,23.85
2019-03-08T05:08:22.032Z,23.82
2019-03-08T05:09:22.022Z,23.88
2019-03-08T05:10:22.014Z,23.79
2019-03-08T05:11:22.025Z,23.82
2019-03-08T05:12:21.993Z,23.94
2019-03-08T05:13:21.980Z,23.89
2019-03-08T05:14:21.972Z,23.92
2019-03-08T05:15:21.958Z,24.04
2019-03-08T05:16:21.946Z,23.95
2019-03-08T05:17:21.970Z,23.94
2019-03-08T05:18:21.936Z,24.00
2019-03-08T05:19:21.915Z,23.94
2019-03-08T05:20:21.903Z,23.95
2019-03-08T05:21:21.891Z,23.91
2019-03-08T05:22:23.232Z,23.88
2019-03-08T05:23:21.870Z,23.88
2019-03-08T05:24:21.858Z,23.89
2019-03-08T05:25:21.852Z,23.91
2019-03-08T05:26:21.842Z,23.85
2019-03-08T05:27:21.845Z,23.96
2019-03-08T05:28:21.820Z,23.91
2019-03-08T05:29:24.227Z,24.00
2019-03-08T05:30:21.801Z,23.94
2019-03-08T05:31:21.788Z,24.03
2019-03-08T05:32:21.791Z,24.03
2019-03-08T05:33:21.774Z,24.03
2019-03-08T05:34:21.758Z,23.92
2019-03-08T05:35:21.751Z,23.96
2019-03-08T05:36:21.746Z,23.95
2019-03-08T05:37:21.742Z,23.96
2019-03-08T05:38:21.720Z,24.00
2019-03-08T05:39:21.708Z,23.96
2019-03-08T05:40:21.703Z,23.99
2019-03-08T05:41:21.687Z,23.92
2019-03-08T05:42:21.699Z,23.88
2019-03-08T05:43:21.667Z,23.89
2019-03-08T05:44:21.650Z,23.92
2019-03-08T05:45:21.638Z,23.86
2019-03-08T05:46:21.639Z,23.95
2019-03-08T05:47:21.637Z,23.89
2019-03-08T05:48:21.608Z,23.96
2019-03-08T05:49:21.604Z,23.94
2019-03-08T05:50:21.589Z,23.92
2019-03-08T05:51:21.584Z,23.96
2019-03-08T05:52:21.597Z,23.92
2019-03-08T05:53:21.556Z,24.06
2019-03-08T05:54:21.549Z,23.91
2019-03-08T05:55:21.540Z,23.88
2019-03-08T05:56:21.529Z,23.89
2019-03-08T05:57:21.552Z,23.88
2019-03-08T05:58:21.509Z,23.92
2019-03-08T05:59:21.491Z,23.89
2019-03-08T06:00:21.488Z,23.92
2019-03-08T06:01:21.483Z,23.92
2019-03-08T06:02:21.468Z,23.99
2019-03-08T06:03:21.467Z,23.96
2019-03-08T06:04:21.446Z,24.06
2019-03-08T06:05:21.433Z,23.96
2019-03-08T06:06:21.419Z,23.89
2019-03-08T06:07:21.415Z,23.89
2019-03-08T06:08:21.429Z,23.92
2019-03-08T06:09:21.389Z,23.88
2019-03-08T06:10:21.404Z,23.82
2019-03-08T06:11:21.373Z,23.79
2019-03-08T06:12:21.365Z,23.82
2019-03-08T06:13:21.359Z,23.91
2019-03-08T06:14:21.347Z,23.86
2019-03-08T06:15:21.330Z,23.77
2019-03-08T06:16:21.323Z,23.88
2019-03-08T06:17:21.307Z,23.84
2019-03-08T06:18:21.308Z,23.85
2019-03-08T06:19:21.297Z,23.89
2019-03-08T06:20:21.282Z,23.95
2019-03-08T06:21:21.271Z,23.92
2019-03-08T06:22:21.251Z,23.92
2019-03-08T06:23:21.262Z,23.91
2019-03-08T06:24:21.244Z,23.96
2019-03-08T06:25:21.231Z,23.94
2019-03-08T06:26:21.217Z,24.03
2019-03-08T06:27:21.203Z,23.91
2019-03-08T06:28:21.203Z,23.95
2019-03-08T06:29:21.182Z,23.89
2019-03-08T06:30:21.178Z,23.91
2019-03-08T06:31:21.164Z,23.94
2019-03-08T06:32:21.151Z,23.88
2019-03-08T06:33:21.165Z,23.94
2019-03-08T06:34:21.124Z,23.94
2019-03-08T06:35:21.129Z,23.91
2019-03-08T06:36:21.105Z,23.94
2019-03-08T06:37:21.099Z,23.86
2019-03-08T06:38:21.100Z,23.79
2019-03-08T06:39:21.083Z,23.66
2019-03-08T06:40:21.067Z,23.52
2019-03-08T06:41:21.060Z,23.44
2019-03-08T06:42:21.044Z,23.36
2019-03-08T06:43:21.060Z,23.26
2019-03-08T06:44:21.028Z,23.26
2019-03-08T06:45:21.016Z,23.18
2019-03-08T06:46:21.004Z,23.08
2019-03-08T06:47:20.995Z,22.99
2019-03-08T06:48:21.016Z,22.93
2019-03-08T06:49:20.969Z,22.86
2019-03-08T06:50:20.961Z,22.80
2019-03-08T06:51:20.949Z,22.83
2019-03-08T06:52:20.937Z,22.80
2019-03-08T06:53:20.932Z,22.71
2019-03-08T06:54:20.937Z,22.63
2019-03-08T06:55:20.919Z,22.68
2019-03-08T06:56:20.904Z,22.61
2019-03-08T06:57:20.898Z,22.62
2019-03-08T06:58:20.880Z,22.63
2019-03-08T06:59:20.888Z,22.58
2019-03-08T07:00:20.858Z,22.65
2019-03-08T07:01:20.846Z,22.76
2019-03-08T07:02:20.837Z,22.83
2019-03-08T07:03:20.827Z,22.84
2019-03-08T07:04:20.867Z,22.95
2019-03-08T07:05:20.803Z,23.07
2019-03-08T07:06:20.797Z,23.08
2019-03-08T07:07:20.791Z,23.17
2019-03-08T07:08:20.778Z,23.28
2019-03-08T07:09:20.787Z,23.29
2019-03-08T07:10:20.753Z,23.40
2019-03-08T07:11:20.742Z,23.49
2019-03-08T07:12:20.731Z,23.48
2019-03-08T07:13:20.720Z,23.62
2019-03-08T07:14:20.750Z,23.66
2019-03-08T07:15:20.706Z,23.70
2019-03-08T07:16:20.692Z,23.73
2019-03-08T07:17:20.682Z,23.69
2019-03-08T07:18:20.669Z,23.76
2019-03-08T07:19:20.678Z,23.69
2019-03-08T07:20:20.647Z,23.85
2019-03-08T07:21:20.638Z,23.84
2019-03-08T07:22:20.628Z,23.92
2019-03-08T07:23:27.592Z,23.88
2019-03-08T07:24:21.629Z,23.77
2019-03-08T07:25:20.598Z,23.70
2019-03-08T07:26:20.596Z,23.69
2019-03-08T07:27:20.576Z,23.67
2019-03-08T07:28:20.573Z,23.69
2019-03-08T07:29:20.601Z,23.56
2019-03-08T07:30:20.586Z,23.71
2019-03-08T07:31:20.631Z,23.71
2019-03-08T07:32:20.531Z,23.77
2019-03-08T07:33:20.585Z,23.77
2019-03-08T07:34:20.539Z,23.82
2019-03-08T07:35:20.535Z,23.92
2019-03-08T07:36:20.529Z,23.94
2019-03-08T07:37:20.514Z,23.85
2019-03-08T07:38:20.506Z,23.95
2019-03-08T07:39:20.549Z,23.95
2019-03-08T07:40:20.776Z,23.95
2019-03-08T07:41:20.565Z,24.03
2019-03-08T07:42:20.462Z,23.89
2019-03-08T07:43:20.432Z,23.88
2019-03-08T07:44:20.412Z,23.92
2019-03-08T07:45:20.600Z,23.95
2019-03-08T07:46:20.439Z,24.01
2019-03-08T07:47:20.386Z,24.00
2019-03-08T07:48:20.450Z,24.01
2019-03-08T07:49:22.332Z,24.01
2019-03-08T07:50:20.396Z,24.01
2019-03-08T07:51:20.331Z,24.04
2019-03-08T07:52:20.316Z,24.01
2019-03-08T07:53:20.302Z,24.01
2019-03-08T07:54:20.305Z,24.13
2019-03-08T07:55:20.292Z,24.16
2019-03-08T07:56:20.292Z,24.07
2019-03-08T07:57:20.260Z,24.10
2019-03-08T07:58:20.255Z,24.10
2019-03-08T07:59:20.247Z,24.13
2019-03-08T08:00:20.230Z,24.10
2019-03-08T08:01:20.238Z,24.10
2019-03-08T08:02:20.210Z,24.14
2019-03-08T08:03:20.218Z,24.00
2019-03-08T08:04:20.189Z,24.06
2019-03-08T08:05:20.178Z,24.04
2019-03-08T08:06:20.183Z,23.94
2019-03-08T08:07:20.162Z,23.99
2019-03-08T08:08:20.148Z,24.07
2019-03-08T08:09:20.137Z,24.13
2019-03-08T08:10:20.122Z,24.18
2019-03-08T08:11:20.127Z,24.29
2019-03-08T08:12:20.099Z,24.25
2019-03-08T08:13:20.100Z,24.26
2019-03-08T08:14:20.090Z,24.32
2019-03-08T08:15:20.074Z,24.31
2019-03-08T08:16:20.081Z,24.28
2019-03-08T08:17:20.055Z,24.26
2019-03-08T08:18:20.035Z,24.19
2019-03-08T08:19:20.034Z,24.21
2019-03-08T08:20:20.024Z,24.22
2019-03-08T08:21:20.005Z,24.21
2019-03-08T08:22:20.019Z,24.16
2019-03-08T08:23:19.995Z,24.06
2019-03-08T08:24:19.987Z,24.13
2019-03-08T08:25:19.972Z,24.14
2019-03-08T08:26:19.953Z,24.16
2019-03-08T08:27:19.955Z,24.19
2019-03-08T08:28:19.935Z,24.29
2019-03-08T08:29:19.921Z,24.31
2019-03-08T08:30:19.921Z,24.44
2019-03-08T08:31:19.910Z,24.43
2019-03-08T08:32:19.926Z,24.46
2019-03-08T08:33:19.881Z,24.41
2019-03-08T08:34:21.800Z,24.50
2019-03-08T08:35:19.860Z,24.44
2019-03-08T08:36:19.849Z,24.58
2019-03-08T08:37:19.835Z,24.48
2019-03-08T08:38:19.849Z,24.46
2019-03-08T08:39:19.818Z,24.51
2019-03-08T08:40:19.823Z,24.37
2019-03-08T08:41:19.800Z,24.40
2019-03-08T08:42:19.790Z,24.32
2019-03-08T08:43:19.810Z,24.48
2019-03-08T08:44:19.764Z,24.44
2019-03-08T08:45:19.757Z,24.48
2019-03-08T08:46:19.746Z,24.50
2019-03-08T08:47:19.734Z,24.51
2019-03-08T08:48:19.742Z,24.51
2019-03-08T08:49:19.711Z,24.53
2019-03-08T08:50:19.701Z,24.56
2019-03-08T08:51:19.696Z,24.38
2019-03-08T08:52:19.688Z,24.40
2019-03-08T08:53:19.700Z,24.26
2019-03-08T08:54:19.665Z,24.19
2019-03-08T08:55:19.646Z,24.11
2019-03-08T08:56:19.641Z,24.03
2019-03-08T08:57:19.631Z,23.96
2019-03-08T08:58:19.616Z,23.91
2019-03-08T08:59:19.622Z,23.71
2019-03-08T09:00:19.596Z,23.66
2019-03-08T09:01:19.589Z,23.51
2019-03-08T09:02:19.590Z,23.45
2019-03-08T09:03:19.576Z,23.25
2019-03-08T09:04:19.573Z,23.21
2019-03-08T09:05:19.549Z,23.23
2019-03-08T09:06:19.536Z,23.11
2019-03-08T09:07:19.528Z,23.08
2019-03-08T09:08:19.515Z,23.01
2019-03-08T09:09:19.517Z,23.04
2019-03-08T09:10:19.497Z,22.89
2019-03-08T09:11:19.481Z,22.91
2019-03-08T09:12:19.470Z,22.98
2019-03-08T09:13:19.466Z,22.99
2019-03-08T09:14:19.469Z,23.16
2019-03-08T09:15:19.442Z,23.25
2019-03-08T09:16:19.430Z,23.28
2019-03-08T09:17:19.421Z,23.48
2019-03-08T09:18:19.412Z,23.69
2019-03-08T09:19:19.418Z,23.73
2019-03-08T09:20:19.393Z,23.94
2019-03-08T09:21:19.373Z,23.95
2019-03-08T09:22:19.366Z,23.99
2019-03-08T09:23:19.362Z,24.01
2019-03-08T09:24:19.377Z,24.09
2019-03-08T09:25:19.334Z,24.10
2019-03-08T09:26:19.328Z,24.13
2019-03-08T09:27:19.317Z,24.24
2019-03-08T09:28:19.303Z,24.22
2019-03-08T09:29:19.311Z,24.16
2019-03-08T09:30:19.284Z,24.19
2019-03-08T09:31:19.271Z,24.04
2019-03-08T09:32:19.263Z,24.19
2019-03-08T09:33:19.255Z,24.19
2019-03-08T09:34:19.264Z,24.21
2019-03-08T09:35:19.236Z,24.18
2019-03-08T09:36:19.223Z,24.22
2019-03-08T09:37:19.221Z,24.24
2019-03-08T09:38:19.205Z,24.26
2019-03-08T09:39:19.193Z,24.28
2019-03-08T09:40:19.206Z,24.40
2019-03-08T09:41:19.170Z,24.43
2019-03-08T09:42:19.162Z,24.37
2019-03-08T09:43:19.145Z,24.34
2019-03-08T09:44:19.135Z,24.40
2019-03-08T09:45:19.139Z,24.41
2019-03-08T09:46:19.116Z,24.48
2019-03-08T09:47:19.107Z,24.32
2019-03-08T09:48:19.104Z,24.36
2019-03-08T09:49:19.086Z,24.28
2019-03-08T09:50:19.104Z,24.26
2019-03-08T09:51:19.062Z,24.26
2019-03-08T09:52:19.054Z,24.24
2019-03-08T09:53:19.046Z,24.28
2019-03-08T09:54:19.032Z,24.29
2019-03-08T09:55:19.048Z,24.26
2019-03-08T09:56:19.012Z,24.25
2019-03-08T09:57:19.001Z,24.24
2019-03-08T09:58:18.990Z,24.32
2019-03-08T09:59:18.984Z,24.40
2019-03-08T10:00:18.989Z,24.36
2019-03-08T10:01:18.956Z,24.41
2019-03-08T10:02:18.952Z,24.32
2019-03-08T10:03:18.938Z,24.22
2019-03-08T10:04:18.921Z,24.18
2019-03-08T10:05:18.915Z,24.16
2019-03-08T10:06:18.917Z,24.04
2019-03-08T10:07:18.893Z,24.07
2019-03-08T10:08:18.886Z,24.09
2019-03-08T10:09:18.877Z,24.04
2019-03-08T10:10:18.864Z,24.04
2019-03-08T10:11:18.867Z,23.94
2019-03-08T10:12:18.843Z,23.95
2019-03-08T10:13:18.832Z,23.99
2019-03-08T10:14:18.813Z,23.95
2019-03-08T10:15:18.817Z,23.95
2019-03-08T10:16:18.809Z,24.04
2019-03-08T10:17:18.794Z,24.06
2019-03-08T10:18:18.777Z,24.03
2019-03-08T10:19:18.768Z,24.13
2019-03-08T10:20:18.755Z,24.09
2019-03-08T10:21:18.760Z,24.07
2019-03-08T10:22:18.736Z,24.16
2019-03-08T10:23:20.103Z,24.06
2019-03-08T10:24:18.713Z,24.10
2019-03-08T10:25:18.709Z,24.11
2019-03-08T10:26:18.712Z,24.03
2019-03-08T10:27:18.688Z,24.10
2019-03-08T10:28:18.676Z,24.18
2019-03-08T10:29:18.659Z,24.16
2019-03-08T10:30:18.661Z,24.18
2019-03-08T10:31:18.663Z,24.18
2019-03-08T10:32:18.631Z,24.24
2019-03-08T10:33:18.627Z,24.24
2019-03-08T10:34:18.618Z,24.38
2019-03-08T10:35:23.765Z,24.36
2019-03-08T10:36:19.615Z,24.44
2019-03-08T10:37:18.593Z,24.41
2019-03-08T10:38:22.695Z,24.43
2019-03-08T10:39:18.566Z,24.32
2019-03-08T10:40:18.546Z,24.51
2019-03-08T10:41:18.539Z,24.41
2019-03-08T10:42:19.730Z,24.34
2019-03-08T10:43:19.234Z,24.26
2019-03-08T10:44:19.228Z,24.29
2019-03-08T10:45:19.230Z,24.21
2019-03-08T10:46:19.230Z,24.24
2019-03-08T10:47:18.491Z,24.21
2019-03-08T10:48:18.462Z,24.26
2019-03-08T10:49:18.456Z,24.25
2019-03-08T10:50:18.436Z,24.25
2019-03-08T10:51:18.438Z,24.28
2019-03-08T10:52:18.436Z,24.34
2019-03-08T10:53:18.416Z,24.38
2019-03-08T10:54:18.406Z,24.48
2019-03-08T10:55:18.387Z,24.44
2019-03-08T10:56:18.379Z,24.38
2019-03-08T10:57:18.390Z,24.40
2019-03-08T10:58:18.367Z,24.44
2019-03-08T10:59:18.345Z,24.41
2019-03-08T11:00:18.334Z,24.37
2019-03-08T11:01:18.334Z,24.38
2019-03-08T11:02:18.314Z,24.43
2019-03-08T11:03:18.321Z,24.34
2019-03-08T11:04:18.294Z,24.32
2019-03-08T11:05:18.284Z,24.36
2019-03-08T11:06:18.279Z,24.29
2019-03-08T11:07:18.266Z,24.32
2019-03-08T11:08:18.266Z,24.32
2019-03-08T11:09:18.244Z,24.32
2019-03-08T11:10:18.232Z,24.34
2019-03-08T11:11:18.228Z,24.24
2019-03-08T11:12:18.211Z,24.22
2019-03-08T11:13:18.215Z,24.25
2019-03-08T11:14:18.192Z,24.19
2019-03-08T11:15:24.341Z,24.13
2019-03-08T11:16:19.165Z,23.94
2019-03-08T11:17:18.157Z,23.91
2019-03-08T11:18:18.162Z,23.81
2019-03-08T11:19:18.140Z,23.71
2019-03-08T11:20:18.127Z,23.54
2019-03-08T11:21:18.118Z,23.40
2019-03-08T11:22:18.105Z,23.26
2019-03-08T11:23:18.119Z,23.17
2019-03-08T11:24:18.083Z,23.07
2019-03-08T11:25:18.073Z,23.04
2019-03-08T11:26:18.082Z,22.98
2019-03-08T11:27:18.055Z,22.92
2019-03-08T11:28:21.170Z,22.88
2019-03-08T11:29:18.030Z,22.78
2019-03-08T11:30:18.020Z,22.71
2019-03-08T11:31:18.021Z,22.58
2019-03-08T11:32:22.977Z,22.59
2019-03-08T11:33:19.003Z,22.58
2019-03-08T11:34:17.977Z,22.43
2019-03-08T11:35:17.979Z,22.46
2019-03-08T11:36:17.959Z,22.40
2019-03-08T11:37:17.947Z,22.47
2019-03-08T11:38:17.976Z,22.51
2019-03-08T11:39:17.930Z,22.40
2019-03-08T11:40:17.916Z,22.43
2019-03-08T11:41:17.908Z,22.49
2019-03-08T11:42:17.900Z,22.53
2019-03-08T11:43:17.891Z,22.59
2019-03-08T11:44:17.892Z,22.73
2019-03-08T11:45:17.864Z,22.77
2019-03-08T11:46:17.851Z,22.92
2019-03-08T11:47:17.845Z,22.99
2019-03-08T11:48:17.834Z,23.10
2019-03-08T11:49:17.836Z,23.17
2019-03-08T11:50:17.807Z,23.08
2019-03-08T11:51:17.803Z,23.11
2019-03-08T11:52:17.790Z,23.17
2019-03-08T11:53:17.778Z,23.17
2019-03-08T11:54:17.785Z,23.11
2019-03-08T11:55:17.764Z,23.11
2019-03-08T11:56:17.751Z,23.01
2019-03-08T11:57:17.742Z,23.01
2019-03-08T11:58:17.725Z,23.16
2019-03-08T11:59:17.731Z,23.14
2019-03-08T12:00:17.703Z,23.16
2019-03-08T12:01:17.698Z,23.02
2019-03-08T12:02:17.698Z,23.08
2019-03-08T12:03:17.686Z,23.13
2019-03-08T12:04:17.680Z,23.17
2019-03-08T12:05:17.659Z,23.17
2019-03-08T12:06:17.652Z,23.17
2019-03-08T12:07:17.632Z,23.06
2019-03-08T12:08:17.624Z,23.13
2019-03-08T12:09:17.628Z,23.14
2019-03-08T12:10:17.604Z,23.06
2019-03-08T12:11:17.586Z,23.07
2019-03-08T12:12:17.589Z,22.99
2019-03-08T12:13:17.571Z,22.96
2019-03-08T12:14:17.579Z,23.11
2019-03-08T12:15:17.547Z,22.96
2019-03-08T12:16:19.025Z,23.02
2019-03-08T12:17:17.533Z,22.98
2019-03-08T12:18:17.525Z,22.99
2019-03-08T12:19:17.526Z,23.01
2019-03-08T12:20:17.514Z,23.02
2019-03-08T12:21:17.485Z,23.06
2019-03-08T12:22:17.475Z,23.10
2019-03-08T12:23:17.464Z,23.08
2019-03-08T12:24:17.470Z,23.10
2019-03-08T12:25:17.443Z,23.18
2019-03-08T12:26:17.459Z,23.18
2019-03-08T12:27:17.424Z,23.21
2019-03-08T12:28:17.417Z,23.16
2019-03-08T12:29:17.420Z,23.25
2019-03-08T12:30:17.390Z,23.25
2019-03-08T12:31:17.386Z,23.29
2019-03-08T12:32:17.381Z,23.33
2019-03-08T12:33:17.367Z,23.28
2019-03-08T12:34:17.362Z,23.29
2019-03-08T12:35:17.352Z,23.32
2019-03-08T12:36:17.329Z,23.47
2019-03-08T12:37:17.325Z,23.54
2019-03-08T12:38:17.307Z,23.42
2019-03-08T12:39:17.333Z,23.47
2019-03-08T12:40:17.288Z,23.52
2019-03-08T12:41:17.282Z,23.36
2019-03-08T12:42:17.266Z,23.39
2019-03-08T12:43:17.258Z,23.26
2019-03-08T12:44:17.247Z,23.33
2019-03-08T12:45:17.257Z,23.29
2019-03-08T12:46:17.227Z,23.34
2019-03-08T12:47:17.223Z,23.32
2019-03-08T12:48:23.622Z,23.21
2019-03-08T12:49:18.195Z,23.25
2019-03-08T12:50:17.200Z,23.26
2019-03-08T12:51:17.174Z,23.36
2019-03-08T12:52:17.161Z,23.44